Terminal Aerodrome Forecast
Issued by NWS

Home | Current Version | Previous Version | Text Only | Print | Product List | Glossary On
Versions: 1 2 3 4 5 6 7 8 9 10 11 12 13 14 15 16 17 18 19
000
FTAK31 PAJN 290500
TAFAKT
TAF
PAKT 290530Z 2906/3006 14010KT 4SM -RA BR SCT006 BKN015 OVC040
      WS020/16035KT
      TEMPO 2906/2910 2SM -RA BR BKN006 OVC015
     FM291200 14005KT 5SM -RA BR BKN015 OVC030
     FM291800 14008KT 6SM -RA BR SCT010 BKN025 OVC030
     FM292100 14008KT P6SM -RA SCT025 OVC050
     FM300300 14006KT P6SM -RA OVC050
      AMD LTD TO CLD VIS AND WIND 2906/2915=

USA.gov is the U.S. government's official web portal to all federal, state and local government web resources and services.